createdAt,value
2017-08-24T00:01:05.200Z,79.02
2017-08-24T00:03:30.975Z,79.25
2017-08-24T00:05:56.760Z,79.05
2017-08-24T00:08:22.600Z,79.50
2017-08-24T00:10:48.381Z,79.17
2017-08-24T00:13:14.131Z,79.85
2017-08-24T00:15:40.017Z,79.62
2017-08-24T00:18:05.807Z,79.21
2017-08-24T00:20:31.565Z,79.23
2017-08-24T00:22:57.347Z,78.88
2017-08-24T00:25:23.134Z,79.37
2017-08-24T00:27:48.891Z,78.85
2017-08-24T00:30:14.663Z,79.95
2017-08-24T00:32:40.447Z,79.52
2017-08-24T00:35:06.211Z,79.20
2017-08-24T00:37:32.010Z,79.02
2017-08-24T00:39:57.782Z,79.26
2017-08-24T00:42:23.552Z,79.42
2017-08-24T00:44:49.345Z,80.06
2017-08-24T00:47:15.105Z,80.19
2017-08-24T00:49:40.955Z,80.27
2017-08-24T00:52:06.705Z,79.69
2017-08-24T00:54:32.550Z,80.31
2017-08-24T00:56:58.368Z,80.03
2017-08-24T00:59:24.124Z,80.18
2017-08-24T01:01:49.942Z,79.93
2017-08-24T01:04:15.701Z,79.58
2017-08-24T01:06:41.455Z,80.28
2017-08-24T01:09:07.280Z,80.66
2017-08-24T01:11:33.116Z,80.81
2017-08-24T01:13:58.871Z,81.16
2017-08-24T01:16:24.654Z,80.99
2017-08-24T01:18:50.422Z,80.83
2017-08-24T01:21:16.225Z,80.72
2017-08-24T01:23:42.022Z,80.52
2017-08-24T01:26:07.769Z,80.50
2017-08-24T01:28:33.560Z,80.39
2017-08-24T01:30:59.439Z,81.08
2017-08-24T01:33:25.201Z,81.17
2017-08-24T01:35:50.961Z,81.17
2017-08-24T01:38:16.733Z,81.55
2017-08-24T01:40:42.512Z,80.92
2017-08-24T01:43:08.303Z,80.63
2017-08-24T01:45:34.049Z,80.89
2017-08-24T01:47:59.827Z,81.45
2017-08-24T01:50:25.647Z,81.58
2017-08-24T01:52:51.386Z,81.82
2017-08-24T01:55:17.145Z,81.74
2017-08-24T01:57:42.937Z,82.56
2017-08-24T02:00:08.692Z,83.35
2017-08-24T02:02:34.479Z,81.45
2017-08-24T02:05:00.233Z,81.87
2017-08-24T02:07:26.066Z,83.62
2017-08-24T02:09:51.853Z,82.09
2017-08-24T02:12:17.590Z,82.13
2017-08-24T02:14:43.360Z,81.04
2017-08-24T02:17:09.123Z,80.82
2017-08-24T02:19:34.916Z,81.57
2017-08-24T02:22:00.712Z,82.36
2017-08-24T02:24:26.473Z,82.67
2017-08-24T02:26:52.235Z,82.73
2017-08-24T02:29:18.024Z,82.45
2017-08-24T02:31:43.820Z,82.65
2017-08-24T02:34:09.568Z,82.90
2017-08-24T02:36:35.341Z,82.91
2017-08-24T02:39:01.098Z,82.81
2017-08-24T02:41:26.839Z,82.30
2017-08-24T02:43:52.598Z,82.82
2017-08-24T02:46:18.376Z,82.87
2017-08-24T02:48:44.160Z,83.51
2017-08-24T02:51:10.016Z,83.83
2017-08-24T02:53:35.783Z,83.12
2017-08-24T02:56:01.556Z,82.91
2017-08-24T02:58:27.379Z,82.91
2017-08-24T03:00:53.159Z,82.30
2017-08-24T03:03:18.974Z,83.43
2017-08-24T03:05:44.717Z,83.09
2017-08-24T03:08:10.487Z,82.86
2017-08-24T03:10:36.339Z,82.71
2017-08-24T03:13:02.116Z,82.94
2017-08-24T03:15:27.923Z,82.82
2017-08-24T03:17:53.727Z,83.09
2017-08-24T03:20:19.468Z,83.56
2017-08-24T03:22:45.230Z,82.73
2017-08-24T03:25:11.027Z,83.87
2017-08-24T03:27:36.796Z,83.52
2017-08-24T03:30:02.567Z,85.49
2017-08-24T03:32:28.354Z,84.60
2017-08-24T03:34:54.108Z,84.23
2017-08-24T03:37:19.900Z,84.02
2017-08-24T03:39:45.650Z,84.33
2017-08-24T03:42:11.438Z,83.55
2017-08-24T03:44:37.207Z,83.17
2017-08-24T03:47:03.066Z,83.48
2017-08-24T03:49:28.877Z,83.68
2017-08-24T03:51:54.641Z,83.18
2017-08-24T03:54:20.405Z,82.38
2017-08-24T03:56:46.180Z,82.54
2017-08-24T03:59:12.632Z,81.61
2017-08-24T04:01:38.448Z,81.61
2017-08-24T04:04:04.245Z,81.17
2017-08-24T04:06:30.045Z,81.14
2017-08-24T04:08:55.799Z,82.29
2017-08-24T04:11:21.624Z,81.69
2017-08-24T04:13:47.400Z,82.87
2017-08-24T04:16:13.189Z,83.02
2017-08-24T04:18:38.983Z,82.47
2017-08-24T04:21:04.748Z,83.07
2017-08-24T04:23:30.487Z,82.80
2017-08-24T04:25:56.244Z,83.26
2017-08-24T04:28:22.096Z,83.00
2017-08-24T04:30:47.899Z,83.94
2017-08-24T04:33:13.647Z,84.28
2017-08-24T04:35:39.416Z,84.14
2017-08-24T04:38:05.229Z,83.42
2017-08-24T04:40:31.028Z,83.74
2017-08-24T04:42:56.775Z,84.03
2017-08-24T04:45:22.608Z,83.42
2017-08-24T04:47:48.363Z,83.96
2017-08-24T04:50:14.147Z,82.84
2017-08-24T04:52:39.937Z,82.21
2017-08-24T04:55:05.712Z,81.79
2017-08-24T04:57:31.504Z,82.06
2017-08-24T04:59:57.250Z,83.80
2017-08-24T05:02:23.034Z,84.47
2017-08-24T05:04:48.847Z,85.56
2017-08-24T05:07:14.603Z,85.46
2017-08-24T05:09:40.495Z,85.03
2017-08-24T05:12:06.292Z,83.91
2017-08-24T05:14:32.027Z,83.70
2017-08-24T05:16:57.763Z,82.05
2017-08-24T05:19:23.557Z,81.99
2017-08-24T05:21:49.319Z,82.33
2017-08-24T05:24:15.079Z,82.21
2017-08-24T05:26:40.850Z,82.23
2017-08-24T05:29:06.643Z,82.73
2017-08-24T05:31:32.440Z,84.32
2017-08-24T05:33:58.205Z,84.12
2017-08-24T05:36:24.003Z,81.78
2017-08-24T05:38:49.827Z,84.09
2017-08-24T05:41:15.584Z,84.12
2017-08-24T05:43:41.347Z,84.42
2017-08-24T05:46:07.143Z,84.40
2017-08-24T05:48:32.921Z,85.98
2017-08-24T05:50:58.716Z,84.69
2017-08-24T05:53:24.495Z,85.35
2017-08-24T05:55:50.247Z,85.18
2017-08-24T05:58:16.032Z,84.94
2017-08-24T06:00:41.805Z,85.29
2017-08-24T06:03:07.596Z,85.41
2017-08-24T06:05:33.360Z,85.26
2017-08-24T06:07:59.151Z,86.58
2017-08-24T06:10:24.931Z,86.11
2017-08-24T06:12:50.707Z,86.30
2017-08-24T06:15:16.451Z,86.22
2017-08-24T06:17:42.228Z,86.04
2017-08-24T06:20:07.999Z,84.89
2017-08-24T06:22:33.796Z,85.14
2017-08-24T06:24:59.545Z,84.81
2017-08-24T06:27:25.331Z,85.22
2017-08-24T06:29:51.115Z,85.40
2017-08-24T06:32:16.870Z,84.86
2017-08-24T06:34:42.648Z,84.37
2017-08-24T06:37:08.443Z,84.57
2017-08-24T06:39:34.196Z,84.24
2017-08-24T06:41:59.938Z,84.43
2017-08-24T06:44:25.711Z,83.66
2017-08-24T06:46:51.623Z,83.52
2017-08-24T06:49:17.377Z,82.99
2017-08-24T06:51:43.248Z,82.16
2017-08-24T06:54:08.991Z,82.08
2017-08-24T06:56:34.735Z,81.40
2017-08-24T06:59:00.552Z,81.05
2017-08-24T07:01:26.302Z,81.22
2017-08-24T07:03:52.047Z,80.20
2017-08-24T07:06:17.836Z,81.00
2017-08-24T07:08:43.588Z,80.25
2017-08-24T07:11:09.356Z,80.67
2017-08-24T07:13:35.147Z,80.35
2017-08-24T07:16:00.916Z,79.82
2017-08-24T07:18:26.721Z,80.27
2017-08-24T07:20:52.463Z,80.18
2017-08-24T07:23:18.264Z,80.75
2017-08-24T07:25:44.055Z,80.49
2017-08-24T07:28:10.715Z,80.58
2017-08-24T07:30:36.464Z,80.53
2017-08-24T07:33:02.232Z,80.55
2017-08-24T07:35:28.021Z,80.67
2017-08-24T07:37:53.803Z,80.31
2017-08-24T07:40:19.556Z,80.09
2017-08-24T07:42:45.460Z,79.66
2017-08-24T07:45:11.223Z,78.08
2017-08-24T07:47:37.018Z,78.04
2017-08-24T07:50:02.771Z,77.45
2017-08-24T07:52:28.519Z,75.71
2017-08-24T07:54:54.321Z,75.26
2017-08-24T07:57:20.095Z,74.59
2017-08-24T07:59:45.884Z,73.09
2017-08-24T08:02:11.730Z,71.35
2017-08-24T08:04:38.413Z,70.14
2017-08-24T08:07:04.188Z,68.63
2017-08-24T08:09:29.949Z,66.58
2017-08-24T08:11:55.712Z,65.19
2017-08-24T08:14:21.513Z,65.67
2017-08-24T08:16:47.300Z,65.06
2017-08-24T08:19:13.047Z,62.98
2017-08-24T08:21:38.820Z,65.38
2017-08-24T08:24:04.603Z,60.54
2017-08-24T08:26:30.392Z,61.87
2017-08-24T08:28:56.159Z,61.98
2017-08-24T08:31:21.988Z,60.81
2017-08-24T08:33:47.729Z,58.72
2017-08-24T08:36:13.475Z,59.94
2017-08-24T08:38:39.275Z,62.00
2017-08-24T08:41:05.023Z,62.56
2017-08-24T08:43:30.857Z,59.06
2017-08-24T08:45:56.636Z,59.71
2017-08-24T08:48:22.415Z,61.33
2017-08-24T08:50:48.180Z,61.56
2017-08-24T08:53:13.949Z,61.47
2017-08-24T08:55:39.848Z,60.37
2017-08-24T08:58:05.599Z,59.99
2017-08-24T09:00:31.367Z,59.54
2017-08-24T09:02:57.127Z,60.41
2017-08-24T09:05:22.916Z,60.42
2017-08-24T09:07:48.676Z,59.34
2017-08-24T09:10:14.424Z,59.12
2017-08-24T09:12:40.300Z,58.86
2017-08-24T09:15:06.076Z,58.06
2017-08-24T09:17:31.826Z,58.39
2017-08-24T09:19:57.642Z,59.04
2017-08-24T09:22:23.472Z,57.42
2017-08-24T09:24:49.415Z,57.39
2017-08-24T09:27:15.201Z,55.89
2017-08-24T09:29:41.055Z,54.69
2017-08-24T09:32:06.851Z,54.98
2017-08-24T09:34:32.624Z,54.76
2017-08-24T09:36:58.408Z,54.75
2017-08-24T09:39:24.243Z,55.27
2017-08-24T09:41:50.014Z,51.95
2017-08-24T09:44:16.307Z,52.31
2017-08-24T09:46:42.337Z,52.23
2017-08-24T09:49:08.467Z,49.94
2017-08-24T09:51:34.809Z,49.31
2017-08-24T09:54:00.923Z,49.46
2017-08-24T09:56:27.277Z,48.86
2017-08-24T09:58:53.387Z,50.22
2017-08-24T10:01:19.626Z,50.74
2017-08-24T10:03:46.083Z,50.26
2017-08-24T10:06:11.846Z,51.67
2017-08-24T10:08:37.719Z,50.19
2017-08-24T10:11:03.570Z,48.02
2017-08-24T10:13:29.412Z,47.00
2017-08-24T10:15:55.206Z,48.44
2017-08-24T10:18:20.979Z,47.07
2017-08-24T10:20:46.815Z,45.83
2017-08-24T10:23:12.584Z,46.98
2017-08-24T10:25:38.348Z,46.95
2017-08-24T10:28:04.132Z,46.20
2017-08-24T10:30:29.924Z,46.57
2017-08-24T10:32:55.716Z,45.77
2017-08-24T10:35:21.528Z,43.86
2017-08-24T10:37:47.369Z,44.31
2017-08-24T10:40:13.232Z,45.02
2017-08-24T10:42:39.012Z,43.30
2017-08-24T10:45:04.796Z,41.65
2017-08-24T10:47:30.619Z,40.81
2017-08-24T10:49:56.380Z,41.17
2017-08-24T10:52:22.169Z,42.80
2017-08-24T10:54:48.951Z,40.13
2017-08-24T10:57:14.756Z,40.34
2017-08-24T10:59:40.531Z,41.33
2017-08-24T11:02:06.292Z,39.34
2017-08-24T11:04:32.164Z,40.69
2017-08-24T11:06:58.027Z,40.41
2017-08-24T11:09:23.787Z,40.80
2017-08-24T11:11:49.590Z,40.45
2017-08-24T11:14:15.346Z,38.96
2017-08-24T11:16:41.149Z,39.11
2017-08-24T11:19:06.926Z,37.86
2017-08-24T11:21:32.694Z,38.30
2017-08-24T11:23:58.495Z,37.20
2017-08-24T11:26:24.755Z,37.38
2017-08-24T11:28:50.516Z,37.80
2017-08-24T11:31:16.304Z,35.57
2017-08-24T11:33:42.123Z,36.45
2017-08-24T11:36:07.916Z,35.86
2017-08-24T11:38:33.752Z,34.78
2017-08-24T11:40:59.578Z,38.94
2017-08-24T11:43:25.324Z,40.85
2017-08-24T11:45:51.075Z,40.15
2017-08-24T11:48:16.884Z,37.56
2017-08-24T11:50:42.639Z,36.18
2017-08-24T11:53:08.486Z,35.70
2017-08-24T11:55:34.344Z,35.89
2017-08-24T11:58:00.097Z,35.42
2017-08-24T12:00:25.879Z,36.11
2017-08-24T12:02:51.622Z,35.71
2017-08-24T12:05:17.400Z,35.21
2017-08-24T12:07:43.162Z,36.32
2017-08-24T12:10:08.916Z,35.88
2017-08-24T12:12:34.719Z,35.40
2017-08-24T12:15:00.492Z,36.51
2017-08-24T12:17:26.263Z,35.79
2017-08-24T12:19:52.043Z,36.23
2017-08-24T12:22:17.816Z,35.51
2017-08-24T12:24:43.603Z,34.76
2017-08-24T12:27:10.221Z,35.51
2017-08-24T12:29:35.974Z,34.96
2017-08-24T12:32:01.870Z,35.02
2017-08-24T12:34:27.655Z,34.18
2017-08-24T12:36:53.539Z,37.66
2017-08-24T12:39:19.382Z,35.49
2017-08-24T12:41:45.188Z,37.19
2017-08-24T12:44:10.972Z,37.19
2017-08-24T12:46:37.776Z,35.87
2017-08-24T12:49:03.669Z,34.63
2017-08-24T12:51:29.521Z,36.94
2017-08-24T12:53:55.302Z,35.25
2017-08-24T12:56:21.063Z,35.89
2017-08-24T12:58:46.864Z,36.19
2017-08-24T13:01:12.654Z,34.08
2017-08-24T13:03:38.406Z,37.33
2017-08-24T13:06:04.220Z,37.84
2017-08-24T13:08:29.984Z,35.61
2017-08-24T13:10:55.769Z,35.91
2017-08-24T13:13:21.567Z,35.15
2017-08-24T13:15:47.394Z,34.99
2017-08-24T13:18:13.199Z,35.72
2017-08-24T13:20:38.966Z,37.05
2017-08-24T13:23:04.766Z,34.83
2017-08-24T13:25:30.512Z,36.24
2017-08-24T13:27:57.331Z,35.95
2017-08-24T13:30:23.161Z,35.93
2017-08-24T13:32:48.920Z,36.62
2017-08-24T13:35:14.731Z,37.97
2017-08-24T13:37:40.552Z,38.00
2017-08-24T13:40:06.359Z,38.85
2017-08-24T13:42:32.160Z,38.65
2017-08-24T13:44:57.913Z,37.89
2017-08-24T13:47:23.735Z,39.01
2017-08-24T13:49:49.575Z,38.98
2017-08-24T13:52:15.332Z,37.57
2017-08-24T13:54:41.975Z,37.54
2017-08-24T13:57:07.932Z,38.81
2017-08-24T13:59:33.775Z,37.31
2017-08-24T14:01:59.531Z,39.26
2017-08-24T14:04:25.353Z,40.68
2017-08-24T14:06:51.132Z,37.50
2017-08-24T14:09:16.923Z,38.89
2017-08-24T14:11:42.796Z,39.43
2017-08-24T14:14:08.591Z,39.02
2017-08-24T14:16:35.067Z,39.34
2017-08-24T14:19:01.507Z,39.07
2017-08-24T14:21:28.052Z,40.00
2017-08-24T14:23:54.488Z,39.50
2017-08-24T14:26:20.260Z,41.52
2017-08-24T14:28:46.130Z,41.16
2017-08-24T14:31:11.979Z,41.63
2017-08-24T14:33:37.792Z,43.15
2017-08-24T14:36:03.691Z,42.76
2017-08-24T14:38:29.531Z,44.48
2017-08-24T14:40:55.377Z,43.61
2017-08-24T14:43:21.171Z,43.15
2017-08-24T14:45:46.940Z,44.18
2017-08-24T14:48:13.756Z,44.38
2017-08-24T14:50:39.535Z,44.92
2017-08-24T14:53:05.338Z,43.94
2017-08-24T14:55:31.239Z,44.55
2017-08-24T14:57:56.986Z,43.78
2017-08-24T15:00:22.788Z,43.44
2017-08-24T15:02:48.601Z,44.11
2017-08-24T15:05:14.376Z,44.38
2017-08-24T15:07:40.256Z,42.61
2017-08-24T15:10:06.054Z,44.47
2017-08-24T15:12:31.914Z,42.34
2017-08-24T15:14:58.800Z,41.75
2017-08-24T15:17:24.539Z,43.75
2017-08-24T15:19:50.285Z,42.62
2017-08-24T15:22:16.161Z,44.11
2017-08-24T15:24:41.955Z,42.45
2017-08-24T15:27:07.756Z,42.61
2017-08-24T15:29:33.544Z,41.93
2017-08-24T15:31:59.312Z,43.05
2017-08-24T15:34:25.076Z,42.39
2017-08-24T15:36:50.867Z,43.64
2017-08-24T15:39:16.680Z,43.82
2017-08-24T15:41:43.248Z,44.02
2017-08-24T15:44:09.045Z,44.06
2017-08-24T15:46:34.855Z,45.09
2017-08-24T15:49:00.651Z,44.15
2017-08-24T15:51:26.391Z,44.30
2017-08-24T15:53:52.287Z,45.46
2017-08-24T15:56:18.068Z,43.71
2017-08-24T15:58:43.904Z,47.57
2017-08-24T16:01:09.687Z,46.82
2017-08-24T16:03:35.531Z,46.99
2017-08-24T16:06:01.316Z,45.35
2017-08-24T16:08:27.124Z,45.68
2017-08-24T16:10:52.947Z,45.36
2017-08-24T16:13:18.706Z,46.12
2017-08-24T16:15:44.527Z,47.18
2017-08-24T16:18:10.283Z,47.40
2017-08-24T16:20:36.116Z,48.34
2017-08-24T16:23:01.968Z,49.83
2017-08-24T16:25:27.755Z,49.78
2017-08-24T16:27:53.607Z,48.61
2017-08-24T16:30:19.356Z,49.43
2017-08-24T16:32:45.187Z,49.65
2017-08-24T16:35:10.940Z,50.45
2017-08-24T16:37:36.748Z,49.92
2017-08-24T16:40:02.504Z,50.79
2017-08-24T16:42:28.255Z,49.81
2017-08-24T16:44:54.040Z,50.66
2017-08-24T16:47:19.796Z,50.72
2017-08-24T16:49:45.571Z,50.80
2017-08-24T16:52:11.459Z,50.20
2017-08-24T16:54:37.239Z,49.18
2017-08-24T16:57:02.988Z,52.22
2017-08-24T16:59:28.739Z,52.33
2017-08-24T17:01:54.519Z,50.46
2017-08-24T17:04:20.308Z,51.52
2017-08-24T17:06:46.188Z,51.09
2017-08-24T17:09:12.004Z,52.04
2017-08-24T17:11:37.764Z,51.62
2017-08-24T17:14:03.566Z,52.29
2017-08-24T17:16:29.340Z,52.22
2017-08-24T17:18:55.212Z,52.82
2017-08-24T17:21:20.975Z,53.41
2017-08-24T17:23:46.744Z,53.68
2017-08-24T17:26:12.534Z,54.85
2017-08-24T17:28:38.292Z,53.63
2017-08-24T17:31:04.052Z,54.09
2017-08-24T17:33:29.832Z,53.54
2017-08-24T17:35:55.590Z,53.68
2017-08-24T17:38:21.440Z,54.26
2017-08-24T17:40:47.231Z,55.15
2017-08-24T17:43:13.041Z,54.24
2017-08-24T17:45:38.915Z,54.73
2017-08-24T17:48:04.665Z,54.79
2017-08-24T17:50:30.535Z,54.00
2017-08-24T17:52:56.332Z,55.30
2017-08-24T17:55:22.096Z,54.84
2017-08-24T17:57:47.886Z,55.14
2017-08-24T18:00:13.689Z,55.89
2017-08-24T18:02:39.428Z,56.15
2017-08-24T18:05:05.175Z,55.62
2017-08-24T18:07:31.011Z,56.67
2017-08-24T18:09:56.747Z,56.44
2017-08-24T18:12:22.495Z,56.03
2017-08-24T18:14:48.279Z,56.59
2017-08-24T18:17:14.031Z,56.43
2017-08-24T18:19:39.823Z,56.40
2017-08-24T18:22:05.572Z,56.75
2017-08-24T18:24:31.432Z,57.09
2017-08-24T18:26:57.179Z,57.78
2017-08-24T18:29:22.932Z,57.50
2017-08-24T18:31:48.687Z,58.50
2017-08-24T18:34:14.438Z,58.95
2017-08-24T18:36:40.312Z,59.07
2017-08-24T18:39:06.091Z,59.32
2017-08-24T18:41:31.847Z,59.34
2017-08-24T18:43:57.668Z,59.12
2017-08-24T18:46:23.504Z,59.54
2017-08-24T18:48:49.268Z,60.62
2017-08-24T18:51:15.021Z,61.85
2017-08-24T18:53:40.875Z,62.79
2017-08-24T18:56:06.619Z,62.82
2017-08-24T18:58:32.355Z,63.17
2017-08-24T19:00:58.138Z,63.66
2017-08-24T19:03:23.882Z,63.42
2017-08-24T19:05:49.639Z,63.05
2017-08-24T19:08:15.392Z,63.09
2017-08-24T19:10:41.172Z,62.77
2017-08-24T19:13:06.935Z,63.69
2017-08-24T19:15:32.751Z,63.73
2017-08-24T19:17:59.361Z,63.51
2017-08-24T19:20:25.112Z,61.97
2017-08-24T19:22:50.958Z,64.47
2017-08-24T19:25:16.727Z,64.97
2017-08-24T19:27:42.496Z,63.11
2017-08-24T19:30:08.352Z,62.85
2017-08-24T19:32:34.128Z,64.13
2017-08-24T19:34:59.905Z,64.53
2017-08-24T19:37:25.689Z,63.82
2017-08-24T19:39:51.469Z,64.07
2017-08-24T19:42:17.309Z,64.98
2017-08-24T19:44:43.017Z,65.21
2017-08-24T19:47:08.836Z,65.88
2017-08-24T19:49:34.603Z,66.97
2017-08-24T19:52:00.364Z,67.78
2017-08-24T19:54:26.136Z,68.07
2017-08-24T19:56:52.014Z,68.30
2017-08-24T19:59:17.795Z,68.74
2017-08-24T20:01:43.604Z,69.11
2017-08-24T20:04:09.529Z,68.57
2017-08-24T20:06:35.392Z,68.87
2017-08-24T20:09:01.138Z,68.55
2017-08-24T20:11:26.955Z,68.72
2017-08-24T20:13:52.725Z,69.56
2017-08-24T20:16:18.523Z,70.33
2017-08-24T20:18:44.277Z,70.87
2017-08-24T20:21:10.029Z,70.57
2017-08-24T20:23:35.892Z,70.93
2017-08-24T20:26:01.635Z,70.92
2017-08-24T20:28:27.389Z,70.55
2017-08-24T20:30:53.161Z,69.94
2017-08-24T20:33:18.924Z,70.88
2017-08-24T20:35:44.820Z,71.76
2017-08-24T20:38:10.578Z,71.06
2017-08-24T20:40:36.392Z,70.71
2017-08-24T20:43:02.137Z,71.01
2017-08-24T20:45:27.892Z,71.32
2017-08-24T20:47:53.688Z,72.03
2017-08-24T20:50:19.456Z,71.97
2017-08-24T20:52:45.238Z,71.60
2017-08-24T20:55:11.038Z,71.99
2017-08-24T20:57:36.779Z,72.09
2017-08-24T21:00:02.548Z,73.02
2017-08-24T21:02:28.340Z,73.61
2017-08-24T21:04:54.095Z,73.44
2017-08-24T21:07:19.856Z,72.45
2017-08-24T21:09:45.627Z,72.95
2017-08-24T21:12:11.386Z,72.99
2017-08-24T21:14:37.152Z,74.19
2017-08-24T21:17:02.912Z,74.45
2017-08-24T21:19:28.687Z,74.26
2017-08-24T21:21:54.499Z,74.48
2017-08-24T21:24:20.256Z,73.87
2017-08-24T21:26:46.111Z,73.63
2017-08-24T21:29:11.860Z,73.73
2017-08-24T21:31:37.620Z,74.01
2017-08-24T21:34:03.405Z,74.48
2017-08-24T21:36:29.143Z,74.56
2017-08-24T21:38:54.931Z,75.07
2017-08-24T21:41:20.681Z,75.33
2017-08-24T21:43:46.459Z,75.13
2017-08-24T21:46:12.225Z,75.85
2017-08-24T21:48:37.991Z,75.55
2017-08-24T21:51:03.771Z,75.66
2017-08-24T21:53:29.547Z,74.82
2017-08-24T21:55:55.315Z,74.76
2017-08-24T21:58:21.099Z,74.32
2017-08-24T22:00:46.903Z,74.97
2017-08-24T22:03:12.651Z,75.67
2017-08-24T22:05:38.441Z,76.33
2017-08-24T22:08:04.179Z,76.57
2017-08-24T22:10:29.978Z,76.07
2017-08-24T22:12:55.716Z,74.93
2017-08-24T22:15:21.831Z,75.72
2017-08-24T22:17:47.572Z,75.70
2017-08-24T22:20:13.412Z,76.20
2017-08-24T22:22:39.200Z,76.30
2017-08-24T22:25:04.966Z,76.14
2017-08-24T22:27:30.703Z,75.49
2017-08-24T22:29:56.516Z,76.12
2017-08-24T22:32:22.286Z,75.50
2017-08-24T22:34:48.042Z,76.17
2017-08-24T22:37:13.850Z,76.71
2017-08-24T22:39:39.583Z,76.71
2017-08-24T22:42:05.364Z,77.48
2017-08-24T22:44:31.204Z,77.45
2017-08-24T22:46:56.956Z,76.90
2017-08-24T22:49:22.714Z,76.65
2017-08-24T22:51:48.460Z,77.26
2017-08-24T22:54:20.332Z,77.51
2017-08-24T22:56:52.156Z,77.07
2017-08-24T22:59:24.081Z,77.69
2017-08-24T23:01:55.915Z,78.00
2017-08-24T23:04:21.703Z,77.56
2017-08-24T23:06:47.451Z,78.08
2017-08-24T23:09:13.202Z,78.29
2017-08-24T23:11:38.996Z,77.91
2017-08-24T23:14:04.787Z,78.03
2017-08-24T23:16:30.576Z,78.68
2017-08-24T23:18:56.333Z,78.76
2017-08-24T23:21:22.199Z,78.61
2017-08-24T23:23:47.955Z,78.71
2017-08-24T23:26:13.696Z,78.24
2017-08-24T23:28:39.447Z,78.83
2017-08-24T23:31:05.319Z,78.55
2017-08-24T23:33:31.097Z,79.59
2017-08-24T23:35:56.919Z,80.38
2017-08-24T23:38:22.772Z,79.36
2017-08-24T23:40:48.532Z,81.16
2017-08-24T23:43:14.292Z,80.91
2017-08-24T23:45:40.080Z,79.96
2017-08-24T23:48:05.955Z,79.34
2017-08-24T23:50:31.744Z,79.45
2017-08-24T23:52:57.500Z,81.71
2017-08-24T23:55:23.339Z,80.89
2017-08-24T23:57:49.101Z,78.83
